Time,TemperatureF,DewpointF,PressureIn,WindDirection,WindDirectionDegrees,WindSpeedMPH,WindSpeedGustMPH,Humidity,HourlyPrecipIn,Conditions,Clouds,dailyrainin,SoftwareType,DateUTC
2013-04-05 00:03:00,68.0,-99.9,29.96,North,-999,-999.0,-999.0,-999,-99.99,,,-99.99,,2013-04-05 04:03:00,
2013-04-05 00:23:00,-999.0,-99.9,29.93,SSW,193,16.0,20.0,-999,-99.99,,,-99.99,,2013-04-05 04:23:00,
2013-04-05 00:33:00,-999.0,-99.9,29.88,SSE,165,20.0,25.0,-999,-99.99,,,-99.99,,2013-04-05 04:33:00,
2013-04-05 00:43:00,-999.0,-99.9,29.88,SSE,166,20.0,25.0,-999,-99.99,,,-99.99,,2013-04-05 04:43:00,
2013-04-05 00:52:00,69.0,-99.9,29.91,North,-999,-999.0,-999.0,-999,-99.99,,,-99.99,,2013-04-05 04:52:00,
2013-04-05 01:02:00,-999.0,-99.9,29.88,South,170,19.0,22.0,-999,-99.99,,,-99.99,,2013-04-05 05:02:00,
2013-04-05 01:22:00,69.0,-99.9,29.93,North,-999,-999.0,-999.0,-999,-99.99,,,-99.99,,2013-04-05 05:22:00,
2013-04-05 01:32:00,69.0,-99.9,29.93,North,-999,-999.0,-999.0,-999,-99.99,,,-99.99,,2013-04-05 05:32:00,
2013-04-05 01:42:00,-999.0,-99.9,29.93,SW,219,9.0,12.0,-999,-99.99,,,-99.99,,2013-04-05 05:42:00,
2013-04-05 01:53:00,-999.0,-99.9,29.92,SW,217,7.0,10.0,-999,-99.99,,,-99.99,,2013-04-05 05:53:00,
2013-04-05 02:03:00,69.0,-99.9,29.91,North,-999,-999.0,-999.0,-999,-99.99,,,-99.99,,2013-04-05 06:03:00,
2013-04-05 02:12:00,-999.0,-99.9,29.91,WSW,239,4.0,6.0,-999,-99.99,,,-99.99,,2013-04-05 06:12:00,
2013-04-05 02:22:00,68.0,-99.9,29.92,North,-999,-999.0,-999.0,-999,-99.99,,,-99.99,,2013-04-05 06:22:00,
2013-04-05 02:32:00,-999.0,-99.9,29.91,SW,229,4.0,6.0,-999,-99.99,,,-99.99,,2013-04-05 06:32:00,
2013-04-05 02:42:00,-999.0,-99.9,29.90,SW,229,4.0,5.0,-999,-99.99,,,-99.99,,2013-04-05 06:42:00,
2013-04-05 02:52:00,69.0,-99.9,29.90,North,-999,-999.0,-999.0,-999,-99.99,,,-99.99,,2013-04-05 06:52:00,
2013-04-05 03:03:00,-999.0,-99.9,29.90,SSW,208,6.0,11.0,-999,-99.99,,,-99.99,,2013-04-05 07:03:00,
2013-04-05 03:12:00,-999.0,-99.9,29.89,SSW,192,5.0,7.0,-999,-99.99,,,-99.99,,2013-04-05 07:12:00,
2013-04-05 03:23:00,-999.0,-99.9,29.90,SW,220,4.0,8.0,-999,-99.99,,,-99.99,,2013-04-05 07:23:00,
2013-04-05 03:32:00,-999.0,-99.9,29.89,SW,224,6.0,8.0,-999,-99.99,,,-99.99,,2013-04-05 07:32:00,
2013-04-05 03:42:00,-999.0,-99.9,29.89,SW,227,5.0,9.0,-999,-99.99,,,-99.99,,2013-04-05 07:42:00,
2013-04-05 03:53:00,70.0,-99.9,29.90,North,-999,-999.0,-999.0,-999,-99.99,,,-99.99,,2013-04-05 07:53:00,
2013-04-05 04:23:00,-999.0,-99.9,29.89,West,280,4.0,10.0,-999,-99.99,,,-99.99,,2013-04-05 08:23:00,
2013-04-05 04:43:00,-999.0,-99.9,29.89,WSW,249,4.0,5.0,-999,-99.99,,,-99.99,,2013-04-05 08:43:00,
2013-04-05 04:52:00,69.0,-99.9,29.88,North,-999,-999.0,-999.0,-999,-99.99,,,-99.99,,2013-04-05 08:52:00,
2013-04-05 05:02:00,69.0,-99.9,29.88,North,-999,-999.0,-999.0,-999,-99.99,,,-99.99,,2013-04-05 09:02:00,
2013-04-05 05:22:00,69.0,-99.9,29.87,North,-999,-999.0,-999.0,-999,-99.99,,,-99.99,,2013-04-05 09:22:00,
2013-04-05 05:43:00,69.0,-99.9,29.86,North,-999,-999.0,-999.0,-999,-99.99,,,-99.99,,2013-04-05 09:43:00,
2013-04-05 05:53:00,69.0,-99.9,29.85,North,-999,-999.0,-999.0,-999,-99.99,,,-99.99,,2013-04-05 09:53:00,
2013-04-05 06:03:00,69.0,-99.9,29.85,North,-999,-999.0,-999.0,-999,-99.99,,,-99.99,,2013-04-05 10:03:00,
2013-04-05 06:23:00,69.0,-99.9,29.85,North,-999,-999.0,-999.0,-999,-99.99,,,-99.99,,2013-04-05 10:23:00,
2013-04-05 06:33:00,69.0,-99.9,29.85,North,-999,-999.0,-999.0,-999,-99.99,,,-99.99,,2013-04-05 10:33:00,
2013-04-05 06:43:00,-999.0,-99.9,29.85,SSW,206,14.0,17.0,-999,-99.99,,,-99.99,,2013-04-05 10:43:00,
2013-04-05 07:13:00,-999.0,-99.9,29.86,SSW,208,12.0,18.0,-999,-99.99,,,-99.99,,2013-04-05 11:13:00,
2013-04-05 07:23:00,-999.0,-99.9,29.88,SW,225,7.0,13.0,-999,-99.99,,,-99.99,,2013-04-05 11:23:00,
2013-04-05 07:33:00,68.0,-99.9,29.88,North,-999,-999.0,-999.0,-999,-99.99,,,-99.99,,2013-04-05 11:33:00,
2013-04-05 07:42:00,-999.0,-99.9,29.88,SW,232,8.0,11.0,-999,-99.99,,,-99.99,,2013-04-05 11:42:00,
2013-04-05 07:52:00,-999.0,-99.9,29.89,WSW,255,7.0,9.0,-999,-99.99,,,-99.99,,2013-04-05 11:52:00,
2013-04-05 08:22:00,-999.0,-99.9,29.90,SW,217,8.0,11.0,-999,-99.99,,,-99.99,,2013-04-05 12:22:00,
2013-04-05 08:32:00,68.0,-99.9,29.91,North,-999,-999.0,-999.0,-999,-99.99,,,-99.99,,2013-04-05 12:32:00,
2013-04-05 08:42:00,69.0,-99.9,29.91,North,-999,-999.0,-999.0,-999,-99.99,,,-99.99,,2013-04-05 12:42:00,
2013-04-05 08:53:00,69.0,-99.9,29.92,North,-999,-999.0,-999.0,-999,-99.99,,,-99.99,,2013-04-05 12:53:00,
2013-04-05 09:02:00,-999.0,-99.9,29.92,WSW,249,12.0,16.0,-999,-99.99,,,-99.99,,2013-04-05 13:02:00,
2013-04-05 09:12:00,-999.0,-99.9,29.92,WSW,252,12.0,15.0,-999,-99.99,,,-99.99,,2013-04-05 13:12:00,
2013-04-05 09:23:00,-999.0,-99.9,29.92,WSW,249,9.0,12.0,-999,-99.99,,,-99.99,,2013-04-05 13:23:00,
2013-04-05 09:32:00,-999.0,-99.9,29.92,WSW,249,8.0,13.0,-999,-99.99,,,-99.99,,2013-04-05 13:32:00,
2013-04-05 09:43:00,-999.0,-99.9,29.92,WSW,249,7.0,9.0,-999,-99.99,,,-99.99,,2013-04-05 13:43:00,
2013-04-05 09:53:00,-999.0,-99.9,29.92,WSW,240,9.0,12.0,-999,-99.99,,,-99.99,,2013-04-05 13:53:00,
2013-04-05 10:03:00,-999.0,-99.9,29.92,WSW,243,9.0,13.0,-999,-99.99,,,-99.99,,2013-04-05 14:03:00,
2013-04-05 10:12:00,-999.0,-99.9,29.91,SW,236,6.0,9.0,-999,-99.99,,,-99.99,,2013-04-05 14:12:00,
2013-04-05 10:23:00,-999.0,-99.9,29.92,WSW,248,10.0,14.0,-999,-99.99,,,-99.99,,2013-04-05 14:23:00,
2013-04-05 10:37:00,-999.0,-99.9,29.92,WSW,251,9.0,12.0,-999,-99.99,,,-99.99,,2013-04-05 14:37:00,
2013-04-05 10:43:00,69.0,-99.9,29.92,North,-999,-999.0,-999.0,-999,-99.99,,,-99.99,,2013-04-05 14:43:00,
2013-04-05 10:55:00,69.0,-99.9,29.92,North,-999,-999.0,-999.0,-999,-99.99,,,-99.99,,2013-04-05 14:55:00,
2013-04-05 11:02:00,-999.0,-99.9,29.93,NW,317,12.0,21.0,-999,-99.99,,,-99.99,,2013-04-05 15:02:00,
2013-04-05 11:24:00,68.0,-99.9,29.93,North,-999,-999.0,-999.0,-999,-99.99,,,-99.99,,2013-04-05 15:24:00,
2013-04-05 11:43:00,68.0,-99.9,29.94,North,-999,-999.0,-999.0,-999,-99.99,,,-99.99,,2013-04-05 15:43:00,
2013-04-05 11:55:00,69.0,-99.9,29.94,North,-999,-999.0,-999.0,-999,-99.99,,,-99.99,,2013-04-05 15:55:00,
2013-04-05 12:03:00,-999.0,-99.9,29.94,NNW,328,14.0,22.0,-999,-99.99,,,-99.99,,2013-04-05 16:03:00,
2013-04-05 12:23:00,-999.0,-99.9,29.94,NNW,330,12.0,19.0,-999,-99.99,,,-99.99,,2013-04-05 16:23:00,
2013-04-05 12:33:00,69.0,-99.9,29.94,North,-999,-999.0,-999.0,-999,-99.99,,,-99.99,,2013-04-05 16:33:00,
2013-04-05 12:43:00,69.0,-99.9,29.94,North,-999,-999.0,-999.0,-999,-99.99,,,-99.99,,2013-04-05 16:43:00,
2013-04-05 12:53:00,69.0,-99.9,29.94,North,-999,-999.0,-999.0,-999,-99.99,,,-99.99,,2013-04-05 16:53:00,
2013-04-05 13:04:00,-999.0,-99.9,29.94,NNW,347,15.0,21.0,-999,-99.99,,,-99.99,,2013-04-05 17:04:00,
2013-04-05 13:24:00,-999.0,-99.9,29.93,NW,316,14.0,20.0,-999,-99.99,,,-99.99,,2013-04-05 17:24:00,
2013-04-05 13:33:00,69.0,-99.9,29.94,North,-999,-999.0,-999.0,-999,-99.99,,,-99.99,,2013-04-05 17:33:00,
2013-04-05 13:46:00,69.0,-99.9,29.93,North,-999,-999.0,-999.0,-999,-99.99,,,-99.99,,2013-04-05 17:46:00,
2013-04-05 13:53:00,69.0,-99.9,29.93,North,-999,-999.0,-999.0,-999,-99.99,,,-99.99,,2013-04-05 17:53:00,
2013-04-05 14:03:00,-999.0,-99.9,29.93,NW,304,18.0,22.0,-999,-99.99,,,-99.99,,2013-04-05 18:03:00,
2013-04-05 14:13:00,-999.0,-99.9,29.93,NW,315,14.0,22.0,-999,-99.99,,,-99.99,,2013-04-05 18:13:00,
2013-04-05 14:23:00,71.0,-99.9,29.92,North,-999,-999.0,-999.0,-999,-99.99,,,-99.99,,2013-04-05 18:23:00,
2013-04-05 14:35:00,70.0,-99.9,29.92,North,-999,-999.0,-999.0,-999,-99.99,,,-99.99,,2013-04-05 18:35:00,
2013-04-05 14:43:00,70.0,-99.9,29.92,North,-999,-999.0,-999.0,-999,-99.99,,,-99.99,,2013-04-05 18:43:00,
2013-04-05 14:53:00,-999.0,-99.9,29.92,NW,312,17.0,22.0,-999,-99.99,,,-99.99,,2013-04-05 18:53:00,
2013-04-05 15:03:00,-999.0,-99.9,29.92,WNW,302,14.0,19.0,-999,-99.99,,,-99.99,,2013-04-05 19:03:00,
2013-04-05 15:14:00,-999.0,-99.9,29.92,WNW,301,14.0,20.0,-999,-99.99,,,-99.99,,2013-04-05 19:14:00,
2013-04-05 15:23:00,-999.0,-99.9,29.91,WNW,302,15.0,21.0,-999,-99.99,,,-99.99,,2013-04-05 19:23:00,
2013-04-05 15:43:00,-999.0,-99.9,29.91,NW,324,16.0,23.0,-999,-99.99,,,-99.99,,2013-04-05 19:43:00,
2013-04-05 15:53:00,70.0,-99.9,29.91,North,-999,-999.0,-999.0,-999,-99.99,,,-99.99,,2013-04-05 19:53:00,
2013-04-05 16:03:00,-999.0,-99.9,29.91,NW,326,14.0,25.0,-999,-99.99,,,-99.99,,2013-04-05 20:03:00,
2013-04-05 16:11:00,70.0,-99.9,29.91,North,-999,-999.0,-999.0,-999,-99.99,,,-99.99,,2013-04-05 20:11:00,
2013-04-05 16:23:00,-999.0,-99.9,29.91,NW,318,12.0,19.0,-999,-99.99,,,-99.99,,2013-04-05 20:23:00,
2013-04-05 16:33:00,-999.0,-99.9,29.90,NW,306,17.0,21.0,-999,-99.99,,,-99.99,,2013-04-05 20:33:00,
2013-04-05 16:43:00,-999.0,-99.9,29.90,NW,308,12.0,22.0,-999,-99.99,,,-99.99,,2013-04-05 20:43:00,
2013-04-05 16:53:00,-999.0,-99.9,29.90,NNW,339,9.0,17.0,-999,-99.99,,,-99.99,,2013-04-05 20:53:00,
2013-04-05 17:24:00,-999.0,-99.9,29.89,NW,316,13.0,20.0,-999,-99.99,,,-99.99,,2013-04-05 21:24:00,
2013-04-05 17:35:00,-999.0,-99.9,29.89,NW,316,13.0,19.0,-999,-99.99,,,-99.99,,2013-04-05 21:35:00,
2013-04-05 17:45:00,69.0,-99.9,29.89,North,-999,-999.0,-999.0,-999,-99.99,,,-99.99,,2013-04-05 21:45:00,
2013-04-05 17:55:00,-999.0,-99.9,29.89,NW,314,16.0,19.0,-999,-99.99,,,-99.99,,2013-04-05 21:55:00,
2013-04-05 18:04:00,-999.0,-99.9,29.89,NW,304,14.0,18.0,-999,-99.99,,,-99.99,,2013-04-05 22:04:00,
2013-04-05 18:13:00,-999.0,-99.9,29.89,NW,305,12.0,16.0,-999,-99.99,,,-99.99,,2013-04-05 22:13:00,
2013-04-05 18:23:00,-999.0,-99.9,29.89,NNW,327,12.0,17.0,-999,-99.99,,,-99.99,,2013-04-05 22:23:00,
2013-04-05 18:44:00,67.0,-99.9,29.90,North,-999,-999.0,-999.0,-999,-99.99,,,-99.99,,2013-04-05 22:44:00,
2013-04-05 18:53:00,67.0,-99.9,29.90,North,-999,-999.0,-999.0,-999,-99.99,,,-99.99,,2013-04-05 22:53:00,
2013-04-05 19:03:00,-999.0,-99.9,29.90,NW,324,13.0,21.0,-999,-99.99,,,-99.99,,2013-04-05 23:03:00,
2013-04-05 19:23:00,65.0,-99.9,29.91,North,-999,-999.0,-999.0,-999,-99.99,,,-99.99,,2013-04-05 23:23:00,
2013-04-05 19:33:00,-999.0,-99.9,29.91,NNW,329,14.0,17.0,-999,-99.99,,,-99.99,,2013-04-05 23:33:00,
2013-04-05 19:43:00,-999.0,-99.9,29.91,NW,311,15.0,21.0,-999,-99.99,,,-99.99,,2013-04-05 23:43:00,
2013-04-05 19:53:00,65.0,-99.9,29.92,North,-999,-999.0,-999.0,-999,-99.99,,,-99.99,,2013-04-05 23:53:00,
2013-04-05 20:03:00,64.0,-99.9,29.93,North,-999,-999.0,-999.0,-999,-99.99,,,-99.99,,2013-04-06 00:03:00,
2013-04-05 20:13:00,-999.0,-99.9,29.93,NNW,340,13.0,19.0,-999,-99.99,,,-99.99,,2013-04-06 00:13:00,
2013-04-05 20:23:00,-999.0,-99.9,29.93,NW,325,10.0,15.0,-999,-99.99,,,-99.99,,2013-04-06 00:23:00,
2013-04-05 20:43:00,-999.0,-99.9,29.94,NW,326,11.0,16.0,-999,-99.99,,,-99.99,,2013-04-06 00:43:00,
2013-04-05 20:53:00,63.0,-99.9,29.95,North,-999,-999.0,-999.0,-999,-99.99,,,-99.99,,2013-04-06 00:53:00,
2013-04-05 21:02:00,63.0,-99.9,29.95,North,-999,-999.0,-999.0,-999,-99.99,,,-99.99,,2013-04-06 01:02:00,
2013-04-05 21:13:00,-999.0,-99.9,29.95,NNW,332,8.0,13.0,-999,-99.99,,,-99.99,,2013-04-06 01:13:00,
2013-04-05 21:23:00,63.0,-99.9,29.96,North,-999,-999.0,-999.0,-999,-99.99,,,-99.99,,2013-04-06 01:23:00,
2013-04-05 21:33:00,-999.0,-99.9,29.97,NNW,331,9.0,17.0,-999,-99.99,,,-99.99,,2013-04-06 01:33:00,
2013-04-05 21:44:00,-999.0,-99.9,29.97,NW,313,9.0,13.0,-999,-99.99,,,-99.99,,2013-04-06 01:44:00,
2013-04-05 21:53:00,63.0,-99.9,29.97,North,-999,-999.0,-999.0,-999,-99.99,,,-99.99,,2013-04-06 01:53:00,
2013-04-05 22:13:00,-999.0,-99.9,29.98,NNW,330,9.0,14.0,-999,-99.99,,,-99.99,,2013-04-06 02:13:00,
2013-04-05 22:23:00,63.0,-99.9,29.99,North,-999,-999.0,-999.0,-999,-99.99,,,-99.99,,2013-04-06 02:23:00,
2013-04-05 22:33:00,63.0,-99.9,29.99,North,-999,-999.0,-999.0,-999,-99.99,,,-99.99,,2013-04-06 02:33:00,
2013-04-05 22:43:00,-999.0,-99.9,30.00,NNW,338,8.0,15.0,-999,-99.99,,,-99.99,,2013-04-06 02:43:00,
2013-04-05 22:53:00,63.0,-99.9,30.00,North,-999,-999.0,-999.0,-999,-99.99,,,-99.99,,2013-04-06 02:53:00,
2013-04-05 23:03:00,64.0,-99.9,30.00,NNW,336,6.0,13.0,-999,-99.99,,,-99.99,,2013-04-06 03:03:00,
2013-04-05 23:23:00,-999.0,-99.9,30.00,NNW,329,8.0,13.0,-999,-99.99,,,-99.99,,2013-04-06 03:23:00,
2013-04-05 23:34:00,-999.0,-99.9,30.00,NNW,343,8.0,14.0,-999,-99.99,,,-99.99,,2013-04-06 03:34:00,
2013-04-05 23:44:00,64.0,-99.9,30.01,North,-999,-999.0,-999.0,-999,-99.99,,,-99.99,,2013-04-06 03:44:00,
2013-04-05 23:55:00,-999.0,-99.9,30.01,North,358,10.0,14.0,-999,-99.99,,,-99.99,,2013-04-06 03:55:00,